Time;durP1;ratioP1;P1;durP2;ratioP2;P2;SDS_P1;SDS_P2;PMS_P1;PMS_P2;Temp;Humidity;BMP_temperature;BMP_pressure;BME280_temperature;BME280_humidity;BME280_pressure;Samples;Min_cycle;Max_cycle;Signal;HPM_P1;HPM_P2
2022/04/19 00:00:55;;;;;;;5.45;3.20;;;5.00;99.90;;;;;;4973668;28;20125;-84
2022/04/19 00:03:42;;;;;;;9.57;3.20;;;5.00;99.90;;;;;;4980509;28;20039;-83
2022/04/19 00:06:29;;;;;;;5.75;3.70;;;4.80;99.90;;;;;;4981939;28;20054;-81
2022/04/19 00:09:17;;;;;;;6.15;4.20;;;4.60;99.90;;;;;;4976202;28;20071;-82
2022/04/19 00:12:07;;;;;;;6.28;4.03;;;4.60;99.90;;;;;;4957681;28;20473;-83
2022/04/19 00:14:55;;;;;;;6.85;4.13;;;4.50;99.90;;;;;;4974382;28;20058;-84
2022/04/19 00:17:42;;;;;;;5.50;3.80;;;4.30;99.90;;;;;;4977220;28;20047;-82
2022/04/19 00:20:30;;;;;;;7.88;3.80;;;4.40;99.90;;;;;;4977022;28;20358;-83
2022/04/19 00:23:24;;;;;;;6.97;3.85;;;4.50;99.90;;;;;;4982680;28;20126;-82
2022/04/19 00:26:11;;;;;;;6.18;3.80;;;4.60;99.90;;;;;;4980261;28;20110;-82
2022/04/19 00:29:00;;;;;;;6.28;3.47;;;4.50;99.90;;;;;;4996024;28;20058;-84
2022/04/19 00:31:53;;;;;;;7.55;3.97;;;4.60;99.90;;;;;;4979533;28;20054;-83
2022/04/19 00:34:40;;;;;;;7.25;3.08;;;4.60;99.90;;;;;;4993491;28;20062;-83
2022/04/19 00:37:27;;;;;;;8.07;3.65;;;4.60;99.90;;;;;;4980841;28;20441;-84
2022/04/19 00:40:14;;;;;;;7.50;3.03;;;4.60;99.90;;;;;;4976185;28;20244;-84
2022/04/19 00:43:03;;;;;;;7.30;3.67;;;4.60;99.90;;;;;;4992564;28;20455;-84
2022/04/19 00:45:53;;;;;;;7.20;3.22;;;4.50;99.90;;;;;;4988465;28;20117;-82
2022/04/19 00:48:40;;;;;;;3.88;3.15;;;4.40;99.90;;;;;;4973028;28;20042;-82
2022/04/19 00:51:29;;;;;;;5.13;3.40;;;4.40;99.90;;;;;;4980910;28;20054;-84
2022/04/19 00:54:18;;;;;;;7.22;3.78;;;4.30;99.90;;;;;;4978331;28;20059;-83
2022/04/19 00:57:08;;;;;;;5.10;3.25;;;4.30;99.90;;;;;;4984516;28;20050;-82
2022/04/19 01:03:28;;;;;;;4.72;2.85;;;4.10;99.90;;;;;;4991177;28;20138;-83
2022/04/19 01:06:25;;;;;;;12.48;5.68;;;4.20;99.90;;;;;;4981508;28;20062;-85
2022/04/19 01:09:15;;;;;;;10.73;5.57;;;4.30;99.90;;;;;;4991483;28;20051;-83
2022/04/19 01:15:12;;;;;;;6.78;4.18;;;4.30;99.90;;;;;;4977753;28;20471;-84
2022/04/19 01:18:02;;;;;;;5.57;3.42;;;4.20;99.90;;;;;;4978867;28;20063;-84
2022/04/19 01:21:02;;;;;;;5.35;3.30;;;4.10;99.90;;;;;;4978326;28;20050;-84
2022/04/19 01:23:49;;;;;;;5.13;2.95;;;4.10;99.90;;;;;;4978721;28;20047;-85
2022/04/19 01:26:39;;;;;;;4.93;2.72;;;4.10;99.90;;;;;;4984204;28;20061;-83
2022/04/19 01:29:30;;;;;;;7.07;2.75;;;4.30;99.90;;;;;;4987486;28;20046;-84
2022/04/19 01:32:25;;;;;;;4.43;3.20;;;4.40;99.90;;;;;;4984698;28;20070;-84
2022/04/19 01:35:19;;;;;;;5.93;3.17;;;4.40;99.90;;;;;;4979984;28;20076;-85
2022/04/19 01:38:06;;;;;;;8.30;3.30;;;4.40;99.90;;;;;;4983443;28;20047;-84
2022/04/19 01:41:14;;;;;;;6.65;3.90;;;4.40;99.90;;;;;;4975000;28;20050;-85
2022/04/19 01:44:15;;;;;;;4.55;3.20;;;4.30;99.90;;;;;;4989351;28;20043;-85
2022/04/19 01:47:50;;;;;;;7.60;3.50;;;4.10;99.90;;;;;;4973884;28;20122;-83
2022/04/19 01:50:46;;;;;;;5.68;3.53;;;4.00;99.90;;;;;;4986730;28;20047;-83
2022/04/19 01:54:22;;;;;;;3.38;3.03;;;3.90;99.90;;;;;;4964498;28;20062;-84
2022/04/19 01:57:11;;;;;;;5.07;3.25;;;4.00;99.90;;;;;;4986052;28;20372;-84
2022/04/19 02:00:12;;;;;;;7.25;3.88;;;4.10;99.90;;;;;;4980999;28;20126;-83
2022/04/19 02:03:03;;;;;;;5.03;3.25;;;4.10;99.90;;;;;;4974125;28;20126;-83
2022/04/19 02:05:53;;;;;;;7.43;3.63;;;4.10;99.90;;;;;;4970838;28;20082;-82
2022/04/19 02:08:56;;;;;;;5.38;3.25;;;4.00;99.90;;;;;;4978846;28;20039;-83
2022/04/19 02:11:44;;;;;;;4.38;3.20;;;4.00;99.90;;;;;;4975110;28;20058;-83
2022/04/19 02:14:31;;;;;;;4.68;3.53;;;3.90;99.90;;;;;;4982988;28;20054;-83
2022/04/19 02:17:20;;;;;;;4.70;3.20;;;3.80;99.90;;;;;;4995429;28;20072;-81
2022/04/19 02:20:08;;;;;;;7.78;3.90;;;3.80;99.90;;;;;;4988011;28;20058;-82
2022/04/19 02:22:58;;;;;;;5.20;3.35;;;3.90;99.90;;;;;;4983710;28;20043;-84
2022/04/19 02:26:03;;;;;;;4.20;3.55;;;3.90;99.90;;;;;;4991139;28;20043;-80
2022/04/19 02:28:51;;;;;;;5.10;3.22;;;3.80;99.90;;;;;;4988522;28;20047;-82
2022/04/19 02:31:47;;;;;;;5.80;3.90;;;3.80;99.90;;;;;;4993637;28;20066;-84
2022/04/19 02:34:34;;;;;;;7.63;3.50;;;3.70;99.90;;;;;;5019573;28;20030;-82
2022/04/19 02:40:01;;;;;;;4.68;3.28;;;3.80;99.90;;;;;;5014469;28;20070;-82
2022/04/19 02:47:02;;;;;;;5.47;3.17;;;3.80;99.90;;;;;;5011863;28;20042;-83
2022/04/19 02:49:51;;;;;;;5.90;3.58;;;3.80;99.90;;;;;;5001888;28;20082;-84
2022/04/19 02:52:41;;;;;;;6.47;3.58;;;3.80;99.90;;;;;;5000142;28;20043;-81
2022/04/19 02:55:35;;;;;;;7.47;3.78;;;3.70;99.90;;;;;;5201536;23;20046;-81
2022/04/19 02:58:25;;;;;;;6.05;3.33;;;3.70;99.90;;;;;;5045470;28;20101;-81
2022/04/19 03:01:15;;;;;;;3.17;2.70;;;3.60;99.90;;;;;;5025482;28;20030;-84
2022/04/19 03:04:07;;;;;;;10.35;4.05;;;3.50;99.90;;;;;;5023550;28;20054;-83
2022/04/19 03:06:55;;;;;;;5.75;3.80;;;3.30;99.90;;;;;;5028631;28;20068;-83
2022/04/19 03:09:43;;;;;;;4.88;3.72;;;3.10;99.90;;;;;;5027261;28;20081;-83
2022/04/19 03:12:42;;;;;;;12.98;4.82;;;3.00;99.90;;;;;;5027454;28;20188;-83
2022/04/19 03:15:34;;;;;;;6.90;4.57;;;2.90;99.90;;;;;;5015842;28;20117;-83
2022/04/19 03:18:30;;;;;;;6.43;4.13;;;2.90;99.90;;;;;;5029925;28;20049;-83
2022/04/19 03:21:20;;;;;;;5.70;4.00;;;2.80;99.90;;;;;;5012298;28;20046;-83
2022/04/19 03:27:45;;;;;;;10.70;5.57;;;2.80;99.90;;;;;;5022604;28;20127;-84
2022/04/19 03:30:51;;;;;;;10.20;5.07;;;2.80;99.90;;;;;;5017475;28;20104;-85
2022/04/19 03:33:39;;;;;;;6.45;4.63;;;2.80;99.90;;;;;;5014444;28;20060;-84
2022/04/19 03:36:26;;;;;;;8.52;4.60;;;2.70;99.90;;;;;;5015788;28;20359;-82
2022/04/19 03:39:13;;;;;;;8.50;4.55;;;2.70;99.90;;;;;;5016708;28;20046;-84
2022/04/19 03:42:01;;;;;;;6.90;4.70;;;2.60;99.90;;;;;;5014535;28;20101;-83
2022/04/19 03:44:51;;;;;;;9.40;5.30;;;2.60;99.90;;;;;;5014116;28;20407;-84
2022/04/19 03:47:41;;;;;;;6.70;4.85;;;2.70;99.90;;;;;;5012777;28;20061;-84
2022/04/19 03:50:32;;;;;;;12.70;4.80;;;2.60;99.90;;;;;;5014788;28;20045;-83
2022/04/19 03:53:21;;;;;;;6.00;4.00;;;2.50;99.90;;;;;;5004918;28;20292;-85
2022/04/19 03:56:09;;;;;;;5.90;4.60;;;2.60;99.90;;;;;;5011076;28;20049;-83
2022/04/19 03:58:56;;;;;;;6.05;3.97;;;2.70;99.90;;;;;;5013452;28;20077;-84
2022/04/19 04:01:43;;;;;;;6.20;5.03;;;2.80;99.90;;;;;;5011183;28;20116;-83
2022/04/19 04:04:32;;;;;;;7.43;4.50;;;2.80;99.90;;;;;;5012476;28;20077;-83
2022/04/19 04:07:19;;;;;;;6.22;4.63;;;2.60;99.90;;;;;;5013930;28;20049;-83
2022/04/19 04:10:15;;;;;;;6.70;4.63;;;2.50;99.90;;;;;;5005565;28;20046;-83
2022/04/19 04:13:04;;;;;;;10.13;4.45;;;2.40;99.90;;;;;;5014302;28;20050;-83
2022/04/19 04:15:58;;;;;;;9.13;5.32;;;2.50;99.90;;;;;;5014382;28;20081;-83
2022/04/19 04:18:55;;;;;;;8.43;5.63;;;2.60;99.90;;;;;;5017745;28;20105;-85
2022/04/19 04:21:58;;;;;;;6.45;4.10;;;2.60;99.90;;;;;;5016016;28;20049;-84
2022/04/19 04:51:02;;;;;;;6.70;4.30;;;2.70;99.90;;;;;;5012383;28;20050;-88
2022/04/19 04:53:49;;;;;;;7.40;4.75;;;2.70;99.90;;;;;;5012660;28;20116;-89
2022/04/19 04:56:44;;;;;;;6.72;4.40;;;2.70;99.90;;;;;;5016394;28;20057;-88
2022/04/19 04:59:34;;;;;;;7.70;4.75;;;2.70;99.90;;;;;;5011163;28;20051;-86
2022/04/19 05:02:25;;;;;;;6.43;3.92;;;2.70;99.90;;;;;;5016325;28;20046;-84
2022/04/19 05:05:12;;;;;;;19.05;10.52;;;2.90;99.90;;;;;;5012460;28;20049;-87
2022/04/19 05:08:03;;;;;;;11.45;6.38;;;3.00;99.90;;;;;;5013649;28;20054;-87
2022/04/19 05:10:50;;;;;;;10.77;6.20;;;3.00;99.90;;;;;;5002270;28;20038;-87
2022/04/19 05:13:37;;;;;;;10.63;6.18;;;2.90;99.90;;;;;;5013678;28;20064;-87
2022/04/19 05:16:27;;;;;;;10.35;5.93;;;2.80;99.90;;;;;;5006839;28;20073;-87
2022/04/19 05:19:15;;;;;;;11.50;5.45;;;2.80;99.90;;;;;;5006805;28;20065;-87
2022/04/19 05:22:05;;;;;;;10.13;6.47;;;2.90;99.90;;;;;;5016118;28;20042;-86
2022/04/19 05:24:52;;;;;;;10.77;5.78;;;2.90;99.90;;;;;;5003865;28;20061;-86
2022/04/19 05:27:40;;;;;;;13.25;5.80;;;2.90;99.90;;;;;;5031535;28;20045;-85
2022/04/19 05:30:27;;;;;;;8.80;5.65;;;3.00;99.90;;;;;;5030777;28;20139;-85
2022/04/19 05:33:14;;;;;;;11.48;5.50;;;3.10;99.90;;;;;;5017709;28;20038;-87
2022/04/19 05:36:04;;;;;;;10.48;5.30;;;3.40;99.90;;;;;;5022233;28;20391;-88
2022/04/19 05:38:56;;;;;;;6.55;4.88;;;3.60;99.90;;;;;;5023392;28;20120;-86
2022/04/19 05:41:43;;;;;;;9.20;4.53;;;3.80;99.90;;;;;;5012741;28;20046;-86
2022/04/19 05:44:32;;;;;;;8.55;4.32;;;4.10;99.90;;;;;;5016975;28;20049;-89
2022/04/19 05:47:22;;;;;;;7.97;4.72;;;4.30;99.90;;;;;;5018843;28;20042;-90
2022/04/19 05:50:10;;;;;;;7.63;4.60;;;4.50;99.90;;;;;;5017822;28;20042;-89
2022/04/19 05:52:57;;;;;;;7.75;4.50;;;4.70;99.90;;;;;;5019792;28;20111;-89
2022/04/19 05:55:45;;;;;;;8.52;4.50;;;4.90;99.90;;;;;;5021587;28;20056;-89
2022/04/19 05:58:33;;;;;;;12.27;5.57;;;5.10;99.90;;;;;;5016662;28;20046;-85
2022/04/19 06:01:23;;;;;;;10.20;5.13;;;5.30;99.90;;;;;;5017375;28;20057;-89
2022/04/19 06:07:30;;;;;;;11.10;5.90;;;5.60;99.90;;;;;;5020288;28;20450;-89
2022/04/19 06:10:25;;;;;;;17.10;6.53;;;5.70;99.90;;;;;;5015431;28;20046;-88
2022/04/19 06:13:13;;;;;;;13.85;6.13;;;5.70;99.90;;;;;;5023615;28;20060;-90
2022/04/19 06:16:00;;;;;;;12.80;6.68;;;5.60;99.90;;;;;;5019084;28;20050;-89
2022/04/19 06:18:53;;;;;;;8.88;5.45;;;5.50;99.90;;;;;;5016152;28;20046;-88
2022/04/19 06:21:41;;;;;;;13.63;5.00;;;5.50;99.90;;;;;;5008441;28;20054;-88
2022/04/19 06:24:28;;;;;;;7.95;5.63;;;5.60;99.90;;;;;;5013265;28;20052;-88
2022/04/19 06:27:16;;;;;;;9.20;5.75;;;5.70;99.90;;;;;;5010779;28;20102;-87
2022/04/19 06:30:05;;;;;;;10.68;5.63;;;5.80;99.90;;;;;;5017333;28;20096;-88
2022/04/19 06:32:58;;;;;;;8.93;5.60;;;6.00;99.90;;;;;;5020842;28;20069;-88
2022/04/19 06:35:48;;;;;;;8.95;4.95;;;6.30;99.90;;;;;;5011271;28;20159;-88
2022/04/19 06:38:37;;;;;;;10.02;5.43;;;6.40;99.90;;;;;;5014387;28;20041;-89
2022/04/19 06:41:25;;;;;;;11.40;6.00;;;6.50;99.90;;;;;;5024710;28;20069;-88
2022/04/19 06:44:15;;;;;;;13.30;7.32;;;6.90;99.90;;;;;;5011094;28;20049;-88
2022/04/19 06:47:03;;;;;;;12.57;7.22;;;7.20;99.90;;;;;;5019264;28;20042;-88
2022/04/19 06:49:51;;;;;;;13.60;6.32;;;7.50;99.90;;;;;;5023728;28;20146;-89
2022/04/19 06:52:38;;;;;;;13.32;7.05;;;7.80;99.90;;;;;;5026313;28;20054;-90
2022/04/19 06:55:26;;;;;;;10.80;6.28;;;8.20;99.90;;;;;;5023884;28;20060;-91
2022/04/19 06:58:13;;;;;;;7.35;4.80;;;8.40;99.90;;;;;;5025196;28;20041;-89
2022/04/19 07:01:02;;;;;;;9.75;5.07;;;8.60;99.90;;;;;;5018812;28;20050;-89
2022/04/19 07:03:51;;;;;;;8.95;4.50;;;8.80;99.90;;;;;;5022148;28;20038;-89
2022/04/19 07:06:38;;;;;;;8.63;4.15;;;9.00;99.90;;;;;;5015635;28;20049;-88
2022/04/19 07:09:26;;;;;;;8.20;4.80;;;9.40;99.90;;;;;;5020334;28;20416;-85
2022/04/19 07:12:19;;;;;;;6.13;4.43;;;9.70;99.90;;;;;;5022424;28;20054;-87
2022/04/19 07:15:07;;;;;;;6.50;4.07;;;9.90;99.50;;;;;;5024823;28;20046;-88
2022/04/19 07:17:55;;;;;;;6.88;3.97;;;10.10;97.70;;;;;;5023182;28;20077;-88
2022/04/19 07:27:06;;;;;;;9.90;4.45;;;10.90;93.40;;;;;;5029973;28;20068;-89
2022/04/19 07:29:53;;;;;;;6.70;4.20;;;11.30;92.50;;;;;;5033941;28;20088;-82
2022/04/19 07:32:44;;;;;;;6.95;3.67;;;11.20;90.90;;;;;;5036664;28;20029;-90
2022/04/19 07:35:31;;;;;;;7.68;4.05;;;11.30;90.50;;;;;;5022527;28;20046;-88
2022/04/19 07:38:19;;;;;;;6.70;4.45;;;11.40;89.90;;;;;;5028101;28;20127;-90
2022/04/19 07:41:07;;;;;;;10.70;4.93;;;11.70;88.70;;;;;;5023139;28;20477;-88
2022/04/19 07:43:54;;;;;;;6.65;4.43;;;12.60;82.80;;;;;;5040533;28;20049;-88
2022/04/19 07:46:45;;;;;;;9.02;3.42;;;13.00;78.80;;;;;;5011531;28;20065;-87
2022/04/19 07:49:34;;;;;;;6.85;3.83;;;13.50;76.70;;;;;;5017801;28;20042;-90
2022/04/19 07:52:21;;;;;;;9.52;4.15;;;14.30;71.30;;;;;;5021317;28;20042;-90
2022/04/19 07:55:08;;;;;;;7.03;4.10;;;15.00;67.50;;;;;;5022716;28;20045;-88
2022/04/19 07:57:57;;;;;;;6.28;3.70;;;15.50;62.20;;;;;;5017762;28;20203;-89
2022/04/19 08:00:48;;;;;;;9.00;3.90;;;15.30;59.00;;;;;;5028296;28;20113;-86
2022/04/19 08:03:36;;;;;;;6.15;4.43;;;14.90;60.60;;;;;;5020960;28;20098;-88
2022/04/19 08:06:24;;;;;;;10.90;5.07;;;14.90;57.10;;;;;;5028758;28;20057;-88
2022/04/19 08:09:14;;;;;;;4.88;4.00;;;14.70;59.90;;;;;;5027234;28;20053;-87
2022/04/19 08:12:02;;;;;;;6.40;4.05;;;15.30;62.70;;;;;;5019776;28;20101;-88
2022/04/19 08:14:51;;;;;;;7.60;3.95;;;15.50;59.80;;;;;;5027900;28;20106;-88
2022/04/19 08:17:39;;;;;;;6.95;4.05;;;15.60;60.70;;;;;;5025463;28;20119;-88
2022/04/19 08:20:26;;;;;;;7.40;3.83;;;16.30;65.80;;;;;;5024012;28;20172;-89
2022/04/19 08:23:18;;;;;;;8.55;3.55;;;17.50;60.70;;;;;;5021875;28;20068;-90
2022/04/19 08:26:06;;;;;;;9.82;3.78;;;18.80;55.30;;;;;;5020702;28;20133;-86
2022/04/19 08:28:55;;;;;;;6.25;4.00;;;18.90;54.00;;;;;;5017438;28;20065;-90
2022/04/19 08:31:43;;;;;;;5.43;3.20;;;19.00;49.00;;;;;;5015375;28;20103;-89
2022/04/19 08:34:30;;;;;;;9.60;4.28;;;18.60;48.80;;;;;;5016591;28;20045;-90
2022/04/19 08:37:20;;;;;;;5.18;3.72;;;18.80;52.70;;;;;;5020478;28;20097;-89
2022/04/19 08:40:10;;;;;;;6.70;3.60;;;19.30;49.30;;;;;;5028411;28;20046;-83
2022/04/19 08:42:58;;;;;;;3.75;3.20;;;19.70;46.90;;;;;;5024904;28;20122;-85
2022/04/19 08:45:45;;;;;;;6.38;3.33;;;20.60;47.40;;;;;;5026865;28;20104;-86
2022/04/19 08:48:35;;;;;;;6.50;4.07;;;20.80;43.70;;;;;;5030318;28;20399;-87
2022/04/19 08:51:25;;;;;;;7.68;4.15;;;20.60;43.00;;;;;;5024523;28;20050;-88
2022/04/19 08:57:29;;;;;;;6.03;3.88;;;21.10;41.50;;;;;;5020820;28;20023;-80
2022/04/19 09:00:23;;;;;;;4.60;3.70;;;21.80;40.30;;;;;;5030584;28;20096;-87
2022/04/19 09:03:10;;;;;;;6.68;4.18;;;22.60;36.60;;;;;;5033892;28;20093;-87
2022/04/19 09:05:59;;;;;;;5.57;3.70;;;23.10;36.80;;;;;;5034862;28;20049;-88
2022/04/19 09:09:10;;;;;;;5.80;3.70;;;23.60;33.50;;;;;;5030913;28;20113;-86
2022/04/19 09:12:10;;;;;;;6.13;3.40;;;23.00;34.80;;;;;;5047343;28;20345;-85
2022/04/19 09:14:59;;;;;;;5.07;3.13;;;22.60;38.80;;;;;;5031379;28;20041;-87
2022/04/19 09:17:50;;;;;;;3.92;2.67;;;23.30;35.90;;;;;;5022681;28;20116;-85
2022/04/19 09:20:38;;;;;;;4.70;2.65;;;23.00;37.60;;;;;;5018628;28;20057;-86
2022/04/19 09:23:31;;;;;;;3.92;2.83;;;22.80;32.10;;;;;;5025026;28;20042;-87
2022/04/19 09:26:40;;;;;;;4.18;2.55;;;23.10;33.20;;;;;;5025942;28;20036;-90
2022/04/19 09:29:30;;;;;;;3.50;2.38;;;22.50;35.40;;;;;;5017665;28;20104;-88
2022/04/19 09:32:19;;;;;;;6.38;3.10;;;22.50;35.70;;;;;;5020831;28;20046;-88
2022/04/19 09:35:07;;;;;;;2.72;2.13;;;22.60;35.00;;;;;;5030930;28;20049;-88
2022/04/19 09:37:55;;;;;;;2.92;2.17;;;22.60;34.50;;;;;;5029721;28;20160;-88
2022/04/19 09:40:46;;;;;;;2.40;1.92;;;23.40;30.80;;;;;;5028650;28;20073;-87
2022/04/19 09:44:13;;;;;;;4.70;2.17;;;23.60;32.80;;;;;;5025576;28;20072;-84
2022/04/19 09:48:54;;;;;;;3.83;2.38;;;24.10;30.90;;;;;;5107875;27;20409;-91
2022/04/19 09:51:47;;;;;;;3.75;2.08;;;24.10;30.90;;;;;;5074641;28;20077;-88
2022/04/19 09:55:01;;;;;;;3.47;2.53;;;24.70;29.60;;;;;;5056983;28;20052;-89
2022/04/19 09:57:52;;;;;;;8.82;2.30;;;24.70;29.90;;;;;;5062985;28;20045;-88
2022/04/19 10:00:43;;;;;;;2.28;1.52;;;24.50;28.20;;;;;;5058461;28;20049;-88
2022/04/19 10:09:50;;;;;;;4.82;2.50;;;24.70;28.00;;;;;;5062644;28;20056;-86
2022/04/19 10:12:38;;;;;;;2.85;2.38;;;25.40;28.30;;;;;;5087521;28;20078;-85
2022/04/19 10:15:29;;;;;;;2.65;2.08;;;25.20;27.10;;;;;;5067081;28;20040;-80
2022/04/19 10:18:39;;;;;;;7.88;2.40;;;25.20;29.50;;;;;;5055562;28;20045;-90
2022/04/19 10:21:41;;;;;;;3.92;2.60;;;24.90;30.40;;;;;;5060170;28;20041;-88
2022/04/19 10:24:45;;;;;;;2.72;2.40;;;24.60;30.00;;;;;;5053123;28;20051;-89
2022/04/19 10:27:36;;;;;;;3.38;2.47;;;24.60;27.50;;;;;;5054672;28;20045;-88
2022/04/19 10:30:27;;;;;;;5.35;2.78;;;24.80;27.10;;;;;;5063507;28;20055;-87
2022/04/19 10:33:44;;;;;;;3.83;2.83;;;25.50;30.00;;;;;;5050911;28;20037;-86
2022/04/19 10:36:35;;;;;;;4.47;2.83;;;24.60;29.20;;;;;;5051656;28;20048;-87
2022/04/19 10:39:27;;;;;;;3.38;2.72;;;25.10;27.30;;;;;;5062140;28;20049;-85
2022/04/19 10:42:36;;;;;;;3.20;2.25;;;24.20;29.10;;;;;;5050575;28;20048;-88
2022/04/19 10:45:25;;;;;;;4.10;2.75;;;24.80;30.40;;;;;;5067060;28;20060;-89
2022/04/19 10:48:19;;;;;;;5.18;2.53;;;25.00;28.60;;;;;;5051037;28;20059;-87
2022/04/19 10:51:28;;;;;;;5.25;2.85;;;24.40;29.50;;;;;;5057235;28;20044;-88
2022/04/19 10:54:36;;;;;;;6.28;2.80;;;25.20;27.30;;;;;;5053766;28;20061;-85
2022/04/19 11:00:54;;;;;;;4.90;2.80;;;25.20;29.90;;;;;;5039089;28;20042;-87
2022/04/19 11:03:52;;;;;;;3.58;3.00;;;25.20;28.80;;;;;;5039290;28;20063;-86
2022/04/19 11:06:42;;;;;;;3.88;2.97;;;25.00;27.10;;;;;;5039024;28;20100;-87
2022/04/19 11:09:30;;;;;;;5.25;3.13;;;24.80;29.70;;;;;;5033401;28;20065;-87
2022/04/19 11:12:18;;;;;;;3.17;2.45;;;24.60;30.70;;;;;;5040999;28;20052;-86
2022/04/19 11:15:16;;;;;;;5.10;2.40;;;25.30;27.00;;;;;;5044812;28;20037;-87
2022/04/19 11:18:24;;;;;;;4.07;2.80;;;25.50;30.00;;;;;;5037408;28;20451;-88
2022/04/19 11:21:12;;;;;;;3.97;2.67;;;26.50;26.10;;;;;;5054153;28;20068;-88
2022/04/19 11:24:03;;;;;;;5.40;3.03;;;26.20;26.00;;;;;;5036000;28;20045;-86
2022/04/19 11:26:56;;;;;;;3.65;2.88;;;25.80;27.90;;;;;;5035578;28;20049;-90
2022/04/19 11:29:48;;;;;;;3.45;3.15;;;26.40;28.30;;;;;;5050192;28;20045;-87
2022/04/19 11:32:41;;;;;;;3.28;2.67;;;27.50;26.20;;;;;;5043653;28;20064;-89
2022/04/19 11:35:32;;;;;;;6.03;3.13;;;28.50;25.10;;;;;;5043325;28;20139;-91
2022/04/19 11:38:28;;;;;;;3.70;2.95;;;27.90;24.20;;;;;;5052026;28;20074;-86
2022/04/19 11:47:54;;;;;;;5.10;2.90;;;28.70;24.60;;;;;;5034501;28;20045;-86
2022/04/19 11:50:43;;;;;;;3.22;2.60;;;28.10;26.80;;;;;;5037060;28;20081;-88
2022/04/19 11:53:30;;;;;;;3.95;2.67;;;26.20;25.80;;;;;;5037169;28;20050;-88
2022/04/19 11:56:22;;;;;;;3.60;2.70;;;24.80;28.80;;;;;;5040341;28;20041;-87
2022/04/19 11:59:11;;;;;;;4.43;3.10;;;25.10;27.60;;;;;;5047593;28;20065;-90
2022/04/19 12:01:59;;;;;;;5.53;3.17;;;26.10;30.00;;;;;;5032392;28;20041;-90
2022/04/19 12:04:56;;;;;;;4.03;3.08;;;25.40;27.30;;;;;;5034717;28;20042;-88
2022/04/19 12:07:50;;;;;;;5.03;3.35;;;25.70;26.90;;;;;;5031348;28;20049;-89
2022/04/19 12:10:37;;;;;;;4.72;3.10;;;25.20;25.80;;;;;;5034159;28;20175;-90
2022/04/19 12:13:27;;;;;;;9.55;3.38;;;23.70;27.00;;;;;;5034584;28;20049;-86
2022/04/19 12:16:40;;;;;;;3.38;2.80;;;23.60;32.50;;;;;;5045670;28;20314;-91
2022/04/19 12:19:41;;;;;;;4.45;3.20;;;25.30;28.80;;;;;;5040008;28;20445;-88
2022/04/19 12:22:33;;;;;;;4.43;2.70;;;25.70;27.60;;;;;;5038583;28;20093;-88
2022/04/19 12:25:23;;;;;;;;;;;25.20;27.80;;;;;;5043107;28;20046;-91
2022/04/19 12:28:13;;;;;;;4.50;2.75;;;25.20;26.90;;;;;;5039812;28;19987;-86
2022/04/19 12:31:01;;;;;;;5.00;2.55;;;25.90;27.40;;;;;;5057683;28;20120;-87
2022/04/19 12:33:53;;;;;;;3.20;2.40;;;26.80;28.10;;;;;;5040199;28;20197;-88
2022/04/19 12:36:43;;;;;;;6.18;2.40;;;27.00;24.40;;;;;;5045215;28;20037;-90
2022/04/19 12:39:33;;;;;;;3.83;2.80;;;26.10;25.00;;;;;;5053215;28;20053;-90
2022/04/19 12:42:20;;;;;;;5.88;3.28;;;26.40;28.30;;;;;;5037428;28;20053;-90
2022/04/19 12:45:10;;;;;;;4.60;3.20;;;26.80;26.30;;;;;;5035612;28;20063;-90
2022/04/19 12:48:00;;;;;;;6.45;3.50;;;27.20;25.10;;;;;;5042503;28;20060;-90
2022/04/19 12:51:02;;;;;;;5.72;3.45;;;25.90;28.40;;;;;;5036623;28;20056;-89
2022/04/19 12:54:07;;;;;;;5.00;3.15;;;26.40;29.50;;;;;;5033627;28;20052;-90
2022/04/19 12:57:00;;;;;;;5.88;2.65;;;26.90;25.30;;;;;;5034890;28;20041;-87
2022/04/19 12:59:47;;;;;;;5.05;3.30;;;25.80;27.30;;;;;;5035566;28;20133;-89
2022/04/19 13:02:40;;;;;;;8.05;2.75;;;26.00;29.50;;;;;;5036177;28;20049;-85
2022/04/19 13:14:56;;;;;;;3.15;2.63;;;26.10;28.30;;;;;;5036562;28;20044;-90
2022/04/19 13:17:47;;;;;;;5.40;3.30;;;25.80;28.90;;;;;;5034015;28;20059;-89
2022/04/19 13:20:35;;;;;;;5.28;2.70;;;26.30;29.40;;;;;;5038529;28;20132;-91
2022/04/19 13:23:22;;;;;;;6.53;3.55;;;27.40;24.80;;;;;;5037730;28;20049;-86
2022/04/19 13:26:10;;;;;;;9.95;3.83;;;26.50;28.50;;;;;;5035242;28;20061;-85
2022/04/19 13:28:58;;;;;;;7.03;3.60;;;26.10;27.10;;;;;;5043391;28;20042;-91
2022/04/19 13:31:45;;;;;;;5.88;3.45;;;25.50;29.00;;;;;;5034198;28;20041;-88
2022/04/19 13:34:35;;;;;;;6.72;3.38;;;25.00;28.70;;;;;;5044108;28;20049;-89
2022/04/19 13:40:33;;;;;;;6.05;3.05;;;26.60;29.50;;;;;;5048443;28;20105;-84
2022/04/19 13:43:23;;;;;;;9.95;4.03;;;25.70;29.10;;;;;;5034405;28;20051;-85
2022/04/19 13:46:10;;;;;;;6.32;3.47;;;25.30;29.20;;;;;;5032268;28;20045;-86
2022/04/19 13:49:00;;;;;;;9.57;3.63;;;24.80;28.70;;;;;;5037388;28;20037;-83
2022/04/19 13:51:49;;;;;;;6.53;3.58;;;24.60;29.60;;;;;;5035323;28;21324;-85
2022/04/19 13:54:39;;;;;;;8.20;3.60;;;24.90;29.80;;;;;;5028785;28;20172;-86
2022/04/19 13:57:29;;;;;;;5.57;4.10;;;24.20;29.90;;;;;;5031825;28;20053;-84
2022/04/19 14:00:17;;;;;;;5.38;3.67;;;25.00;30.00;;;;;;5030068;28;20045;-84
2022/04/19 14:03:04;;;;;;;9.13;4.47;;;25.30;29.20;;;;;;5037128;28;20354;-84
2022/04/19 14:05:53;;;;;;;6.35;3.42;;;25.00;29.10;;;;;;5029522;28;20168;-83
2022/04/19 14:08:40;;;;;;;4.88;3.35;;;26.00;27.10;;;;;;5054504;28;20099;-86
2022/04/19 14:11:27;;;;;;;6.50;3.53;;;26.50;27.50;;;;;;5032106;28;20056;-87
2022/04/19 14:14:15;;;;;;;4.78;3.22;;;27.10;27.50;;;;;;5026742;28;20460;-85
2022/04/19 14:17:04;;;;;;;5.18;3.05;;;27.40;26.90;;;;;;5040605;28;20327;-85
2022/04/19 14:19:52;;;;;;;5.32;3.45;;;27.40;26.60;;;;;;5031693;28;20068;-85
2022/04/19 14:22:39;;;;;;;5.57;3.55;;;26.70;27.40;;;;;;5030280;28;20378;-83
2022/04/19 14:25:26;;;;;;;7.10;3.17;;;26.60;27.60;;;;;;5030541;28;20127;-86
2022/04/19 14:28:16;;;;;;;5.93;3.45;;;25.50;26.50;;;;;;5029427;28;20050;-87
2022/04/19 14:34:19;;;;;;;4.35;3.20;;;24.40;30.30;;;;;;5026914;28;20073;-84
2022/04/19 14:37:07;;;;;;;3.60;2.67;;;25.00;29.80;;;;;;5035846;28;20037;-86
2022/04/19 14:39:54;;;;;;;5.63;3.08;;;25.40;27.80;;;;;;5033546;28;20526;-84
2022/04/19 14:42:41;;;;;;;6.32;3.00;;;26.30;27.70;;;;;;5029630;28;20068;-83
2022/04/19 14:45:29;;;;;;;3.47;2.95;;;26.70;25.20;;;;;;5047629;28;20118;-84
2022/04/19 14:48:19;;;;;;;6.45;2.65;;;27.30;25.20;;;;;;5044055;28;20123;-86
2022/04/19 14:54:12;;;;;;;3.15;2.60;;;25.30;26.90;;;;;;5034649;28;20123;-86
2022/04/19 14:57:00;;;;;;;4.05;2.30;;;24.90;28.40;;;;;;5032474;28;20041;-85
2022/04/19 14:59:47;;;;;;;3.63;2.50;;;24.10;28.20;;;;;;5034820;28;20060;-85
2022/04/19 15:02:41;;;;;;;2.55;2.30;;;24.40;28.60;;;;;;5035009;28;20045;-87
2022/04/19 15:05:29;;;;;;;4.57;2.33;;;24.20;27.30;;;;;;5033007;28;20129;-88
2022/04/19 15:08:16;;;;;;;5.50;2.30;;;23.90;28.30;;;;;;5026446;28;20061;-84
2022/04/19 15:11:04;;;;;;;6.35;2.20;;;23.90;28.30;;;;;;5034170;28;20049;-84
2022/04/19 15:13:51;;;;;;;4.82;3.03;;;24.50;29.40;;;;;;5036503;28;20057;-88
2022/04/19 15:16:39;;;;;;;4.50;2.35;;;23.10;28.70;;;;;;5034799;28;20410;-85
2022/04/19 15:19:26;;;;;;;8.43;2.53;;;23.10;31.10;;;;;;5035989;28;20060;-86
2022/04/19 15:22:14;;;;;;;4.90;2.75;;;23.00;30.60;;;;;;5033146;28;20371;-84
2022/04/19 15:25:05;;;;;;;3.08;2.00;;;22.90;31.10;;;;;;5029131;28;20109;-84
2022/04/19 15:27:54;;;;;;;4.07;2.88;;;23.60;30.00;;;;;;5034056;28;20069;-88
2022/04/19 15:30:41;;;;;;;2.42;2.22;;;22.70;30.00;;;;;;5028703;28;20081;-86
2022/04/19 15:33:36;;;;;;;7.97;2.55;;;22.40;30.80;;;;;;5032948;28;20057;-84
2022/04/19 15:36:24;;;;;;;2.88;2.38;;;22.80;30.20;;;;;;5032005;28;20363;-83
2022/04/19 15:39:11;;;;;;;6.95;2.50;;;23.40;30.60;;;;;;5038878;28;20041;-86
2022/04/19 15:42:00;;;;;;;3.42;2.83;;;22.30;31.50;;;;;;5027127;28;20042;-85
2022/04/19 15:44:48;;;;;;;3.83;2.95;;;22.30;33.50;;;;;;5034204;28;20052;-84
2022/04/19 15:47:36;;;;;;;4.28;2.80;;;22.10;33.70;;;;;;5032568;28;20056;-84
2022/04/19 15:50:23;;;;;;;6.75;2.53;;;22.40;32.40;;;;;;5030712;28;20033;-84
2022/04/19 15:53:12;;;;;;;3.97;2.42;;;22.00;31.90;;;;;;5033229;28;20053;-85
2022/04/19 15:56:01;;;;;;;3.65;2.67;;;22.00;33.50;;;;;;5030195;28;20045;-86
2022/04/19 15:58:48;;;;;;;8.02;3.17;;;21.50;33.80;;;;;;5039487;28;20033;-84
2022/04/19 16:01:36;;;;;;;5.32;2.72;;;21.10;34.60;;;;;;5045159;28;20045;-84
2022/04/19 16:04:23;;;;;;;4.55;3.30;;;20.80;36.20;;;;;;5031068;28;20049;-86
2022/04/19 16:07:11;;;;;;;6.75;3.20;;;20.50;37.80;;;;;;5015903;28;20065;-85
2022/04/19 16:09:58;;;;;;;7.13;3.38;;;20.20;38.60;;;;;;5035765;28;20053;-83
2022/04/19 16:12:46;;;;;;;4.22;2.65;;;20.20;36.50;;;;;;5013221;28;20048;-85
2022/04/19 16:15:34;;;;;;;5.85;3.05;;;19.50;38.40;;;;;;5036501;28;20049;-83
2022/04/19 16:24:35;;;;;;;8.85;3.97;;;18.50;39.90;;;;;;5036255;28;20049;-85
2022/04/19 16:27:23;;;;;;;5.63;3.65;;;18.30;41.60;;;;;;5026718;28;20045;-84
2022/04/19 16:30:11;;;;;;;4.35;3.10;;;18.20;42.40;;;;;;5035394;28;20033;-85
2022/04/19 16:33:00;;;;;;;4.85;3.30;;;17.90;41.20;;;;;;5027621;28;20111;-84